Time;durP1;ratioP1;P1;durP2;ratioP2;P2;SDS_P1;SDS_P2;PMS_P1;PMS_P2;Temp;Humidity;BMP_temperature;BMP_pressure;BME280_temperature;BME280_humidity;BME280_pressure;Samples;Min_cycle;Max_cycle;Signal;HPM_P1;HPM_P2
2022/04/09 00:00:21;;;;;;;;;;;;;;;;;;5055850;28;19924;-69
2022/04/09 00:02:55;;;;;;;;;;;;;;;;;;5057393;28;19975;-70
2022/04/09 00:05:21;;;;;;;;;;;;;;;;;;5060642;28;19991;-69
2022/04/09 00:07:47;;;;;;;;;;;;;;;;;;5060196;28;19968;-70
2022/04/09 00:10:21;;;;;;;;;;;;;;;;;;5058340;28;20564;-69
2022/04/09 00:12:47;;;;;;;;;;;;;;;;;;5062372;28;19920;-69
2022/04/09 00:15:13;;;;;;;;;;;;;;;;;;5056070;28;20011;-69
2022/04/09 00:17:41;;;;;;;;;;;;;;;;;;5056299;28;19986;-69
2022/04/09 00:20:07;;;;;;;;;;;;;;;;;;5060758;28;20365;-71
2022/04/09 00:22:34;;;;;;;;;;;;;;;;;;5053233;28;19960;-69
2022/04/09 00:25:02;;;;;;;;;;;;;;;;;;5060616;28;19920;-69
2022/04/09 00:27:28;;;;;;;;;;;;;;;;;;5061512;28;19974;-69
2022/04/09 00:29:55;;;;;;;;;;;;;;;;;;5060364;28;19925;-69
2022/04/09 00:32:21;;;;;;;;;;;;;;;;;;5053839;28;19998;-69
2022/04/09 00:34:48;;;;;;;;;;;;;;;;;;5060879;28;19970;-69
2022/04/09 00:37:14;;;;;;;;;;;;;;;;;;5060348;28;19999;-68
2022/04/09 00:39:41;;;;;;;;;;;;;;;;;;5056901;28;20016;-68
2022/04/09 00:42:07;;;;;;;;;;;;;;;;;;5057737;28;20019;-68
2022/04/09 00:44:36;;;;;;;;;;;;;;;;;;5060476;28;19999;-68
2022/04/09 00:47:03;;;;;;;;;;;;;;;;;;5056874;28;20380;-68
2022/04/09 00:49:30;;;;;;;;;;;;;;;;;;5059728;28;20386;-68
2022/04/09 00:51:57;;;;;;;;;;;;;;;;;;5047146;28;19972;-68
2022/04/09 00:54:24;;;;;;;;;;;;;;;;;;5036004;28;20407;-68
2022/04/09 00:56:51;;;;;;;;;;;;;;;;;;5038357;28;19971;-68
2022/04/09 00:59:19;;;;;;;;;;;;;;;;;;5038257;28;19995;-68
2022/04/09 01:01:46;;;;;;;;;;;;;;;;;;5038282;28;19960;-68
2022/04/09 01:04:12;;;;;;;;;;;;;;;;;;5040749;28;19937;-68
2022/04/09 01:06:40;;;;;;;;;;;;;;;;;;5038366;28;19970;-69
2022/04/09 01:09:06;;;;;;;;;;;;;;;;;;5039118;28;20392;-69
2022/04/09 01:11:33;;;;;;;;;;;;;;;;;;5038652;28;20365;-69
2022/04/09 01:14:00;;;;;;;;;;;;;;;;;;5035208;28;19964;-68
2022/04/09 01:16:29;;;;;;;;;;;;;;;;;;5040822;28;19983;-69
2022/04/09 01:18:55;;;;;;;;;;;;;;;;;;5039935;28;21226;-68
2022/04/09 01:21:24;;;;;;;;;;;;;;;;;;5038348;28;20412;-68
2022/04/09 01:23:51;;;;;;;;;;;;;;;;;;5040655;28;19979;-68
2022/04/09 01:26:18;;;;;;;;;;;;;;;;;;5041983;28;19955;-69
2022/04/09 01:28:44;;;;;;;;;;;;;;;;;;5040747;28;20312;-69
2022/04/09 01:31:10;;;;;;;;;;;;;;;;;;5038735;28;19968;-69
2022/04/09 01:33:39;;;;;;;;;;;;;;;;;;5043188;28;19920;-68
2022/04/09 01:36:05;;;;;;;;;;;;;;;;;;5039696;28;19972;-69
2022/04/09 01:38:34;;;;;;;;;;;;;;;;;;5041572;28;19925;-69
2022/04/09 01:41:06;;;;;;;;;;;;;;;;;;5040899;28;20362;-69
2022/04/09 01:43:33;;;;;;;;;;;;;;;;;;5044700;28;20359;-69
2022/04/09 01:45:59;;;;;;;;;;;;;;;;;;5039455;28;19920;-68
2022/04/09 01:48:26;;;;;;;;;;;;;;;;;;5040227;28;19967;-68
2022/04/09 01:50:52;;;;;;;;;;;;;;;;;;5026436;28;20080;-68
2022/04/09 01:53:19;;;;;;;;;;;;;;;;;;5061646;28;19982;-68
2022/04/09 01:55:46;;;;;;;;;;;;;;;;;;5059535;28;19991;-69
2022/04/09 01:58:12;;;;;;;;;;;;;;;;;;5059313;28;20027;-68
2022/04/09 02:00:38;;;;;;;;;;;;;;;;;;5060786;28;19971;-68
2022/04/09 02:03:05;;;;;;;;;;;;;;;;;;5057171;28;19928;-68
2022/04/09 02:05:31;;;;;;;;;;;;;;;;;;5061124;28;19966;-68
2022/04/09 02:07:58;;;;;;;;;;;;;;;;;;5061789;28;19928;-68
2022/04/09 02:10:24;;;;;;;;;;;;;;;;;;5060721;28;19952;-68
2022/04/09 02:12:51;;;;;;;;;;;;;;;;;;5063119;28;20015;-68
2022/04/09 02:15:17;;;;;;;;;;;;;;;;;;5063530;28;19931;-68
2022/04/09 02:17:44;;;;;;;;;;;;;;;;;;5063166;28;19979;-68
2022/04/09 02:20:11;;;;;;;;;;;;;;;;;;5044010;28;19956;-68
2022/04/09 02:22:37;;;;;;;;;;;;;;;;;;5062463;28;20277;-70
2022/04/09 02:25:03;;;;;;;;;;;;;;;;;;5051727;28;19992;-68
2022/04/09 02:27:30;;;;;;;;;;;;;;;;;;5058987;28;20363;-69
2022/04/09 02:29:56;;;;;;;;;;;;;;;;;;5058282;28;19979;-68
2022/04/09 02:32:23;;;;;;;;;;;;;;;;;;5056849;28;20048;-69
2022/04/09 02:34:52;;;;;;;;;;;;;;;;;;5053238;28;19963;-68
2022/04/09 02:37:18;;;;;;;;;;;;;;;;;;5053444;28;20109;-68
2022/04/09 02:39:44;;;;;;;;;;;;;;;;;;5061756;28;19921;-68
2022/04/09 02:42:12;;;;;;;;;;;;;;;;;;5063321;28;19928;-68
2022/04/09 02:44:39;;;;;;;;;;;;;;;;;;5057559;28;19970;-68
2022/04/09 02:47:05;;;;;;;;;;;;;;;;;;5055916;28;19987;-69
2022/04/09 02:49:32;;;;;;;;;;;;;;;;;;5061875;28;19924;-68
2022/04/09 02:51:58;;;;;;;;;;;;;;;;;;5049868;28;19932;-68
2022/04/09 02:54:25;;;;;;;;;;;;;;;;;;5061303;28;19964;-68
2022/04/09 02:56:51;;;;;;;;;;;;;;;;;;5059646;28;19982;-68
2022/04/09 02:59:18;;;;;;;;;;;;;;;;;;5062391;28;20275;-69
2022/04/09 03:01:46;;;;;;;;;;;;;;;;;;5060243;28;20006;-68
2022/04/09 03:04:13;;;;;;;;;;;;;;;;;;5060053;28;19985;-68
2022/04/09 03:06:39;;;;;;;;;;;;;;;;;;5059829;28;19952;-69
2022/04/09 03:09:05;;;;;;;;;;;;;;;;;;5058298;28;20055;-68
2022/04/09 03:11:33;;;;;;;;;;;;;;;;;;5060229;28;19963;-68
2022/04/09 03:14:00;;;;;;;;;;;;;;;;;;5060120;28;20007;-68
2022/04/09 03:16:26;;;;;;;;;;;;;;;;;;5059941;28;19979;-69
2022/04/09 03:18:53;;;;;;;;;;;;;;;;;;5060080;28;19927;-68
2022/04/09 03:21:19;;;;;;;;;;;;;;;;;;5058998;28;19931;-68
2022/04/09 03:23:46;;;;;;;;;;;;;;;;;;5054437;28;19962;-68
2022/04/09 03:26:12;;;;;;;;;;;;;;;;;;5044622;28;19975;-68
2022/04/09 03:28:39;;;;;;;;;;;;;;;;;;5057952;28;19971;-68
2022/04/09 03:31:05;;;;;;;;;;;;;;;;;;5060385;28;20015;-68
2022/04/09 03:33:32;;;;;;;;;;;;;;;;;;5061803;28;20280;-68
2022/04/09 03:35:58;;;;;;;;;;;;;;;;;;5060143;28;19967;-68
2022/04/09 03:38:25;;;;;;;;;;;;;;;;;;5037618;28;20051;-68
2022/04/09 03:40:51;;;;;;;;;;;;;;;;;;5054571;28;19964;-68
2022/04/09 03:43:18;;;;;;;;;;;;;;;;;;5056705;28;19956;-68
2022/04/09 03:45:44;;;;;;;;;;;;;;;;;;5056108;28;19966;-68
2022/04/09 03:48:10;;;;;;;;;;;;;;;;;;5056240;28;19928;-69
2022/04/09 03:50:43;;;;;;;;;;;;;;;;;;5058940;28;20012;-68
2022/04/09 03:53:10;;;;;;;;;;;;;;;;;;5059540;28;20011;-68
2022/04/09 03:55:36;;;;;;;;;;;;;;;;;;5058142;28;20035;-69
2022/04/09 03:58:02;;;;;;;;;;;;;;;;;;5059480;28;20014;-69
2022/04/09 04:00:29;;;;;;;;;;;;;;;;;;5057092;28;19972;-68
2022/04/09 04:02:57;;;;;;;;;;;;;;;;;;5055725;28;20451;-68
2022/04/09 04:05:25;;;;;;;;;;;;;;;;;;5056936;28;19924;-68
2022/04/09 04:07:52;;;;;;;;;;;;;;;;;;5059228;28;20453;-68
2022/04/09 04:10:19;;;;;;;;;;;;;;;;;;5059151;28;20023;-69
2022/04/09 04:12:47;;;;;;;;;;;;;;;;;;5055883;28;20475;-68
2022/04/09 04:15:15;;;;;;;;;;;;;;;;;;5059252;28;19979;-68
2022/04/09 04:17:41;;;;;;;;;;;;;;;;;;5060867;28;19924;-69
2022/04/09 04:20:08;;;;;;;;;;;;;;;;;;5060930;28;19967;-68
2022/04/09 04:22:34;;;;;;;;;;;;;;;;;;5058871;28;19967;-69
2022/04/09 04:25:00;;;;;;;;;;;;;;;;;;5054605;28;19968;-68
2022/04/09 04:27:33;;;;;;;;;;;;;;;;;;5056348;28;19967;-69
2022/04/09 04:30:00;;;;;;;;;;;;;;;;;;5060694;28;19924;-69
2022/04/09 04:32:26;;;;;;;;;;;;;;;;;;5059660;28;19933;-69
2022/04/09 04:34:59;;;;;;;;;;;;;;;;;;5056514;28;19956;-69
2022/04/09 04:37:26;;;;;;;;;;;;;;;;;;5058469;28;19964;-69
2022/04/09 04:39:52;;;;;;;;;;;;;;;;;;5056979;28;19920;-69
2022/04/09 04:42:25;;;;;;;;;;;;;;;;;;5058298;28;19974;-68
2022/04/09 04:44:52;;;;;;;;;;;;;;;;;;5050099;28;20001;-69
2022/04/09 04:47:18;;;;;;;;;;;;;;;;;;5052125;28;20248;-68
2022/04/09 04:49:44;;;;;;;;;;;;;;;;;;5049582;28;20424;-68
2022/04/09 04:52:11;;;;;;;;;;;;;;;;;;5052709;28;20046;-68
2022/04/09 04:54:37;;;;;;;;;;;;;;;;;;5049143;28;19935;-68
2022/04/09 04:57:03;;;;;;;;;;;;;;;;;;5060484;28;20008;-69
2022/04/09 04:59:30;;;;;;;;;;;;;;;;;;5058118;28;21163;-69
2022/04/09 05:01:56;;;;;;;;;;;;;;;;;;5053885;28;20023;-68
2022/04/09 05:04:25;;;;;;;;;;;;;;;;;;5058498;28;20406;-69
2022/04/09 05:06:51;;;;;;;;;;;;;;;;;;5063147;28;19932;-69
2022/04/09 05:09:18;;;;;;;;;;;;;;;;;;5060352;28;19971;-69
2022/04/09 05:11:50;;;;;;;;;;;;;;;;;;5062375;28;20011;-68
2022/04/09 05:14:17;;;;;;;;;;;;;;;;;;5063152;28;19946;-69
2022/04/09 05:16:44;;;;;;;;;;;;;;;;;;5061251;28;19968;-69
2022/04/09 05:19:12;;;;;;;;;;;;;;;;;;5061270;28;20011;-69
2022/04/09 05:21:39;;;;;;;;;;;;;;;;;;5062598;28;19974;-69
2022/04/09 05:24:06;;;;;;;;;;;;;;;;;;5063114;28;20409;-69
2022/04/09 05:26:33;;;;;;;;;;;;;;;;;;5058645;28;19991;-69
2022/04/09 05:28:59;;;;;;;;;;;;;;;;;;5060059;28;20127;-69
2022/04/09 05:31:27;;;;;;;;;;;;;;;;;;5062071;28;20015;-70
2022/04/09 05:33:54;;;;;;;;;;;;;;;;;;5062286;28;19979;-69
2022/04/09 05:36:20;;;;;;;;;;;;;;;;;;5059872;28;20074;-70
2022/04/09 05:38:53;;;;;;;;;;;;;;;;;;5061035;28;20023;-69
2022/04/09 05:41:20;;;;;;;;;;;;;;;;;;5059365;28;20039;-70
2022/04/09 05:43:46;;;;;;;;;;;;;;;;;;5061980;28;20411;-70
2022/04/09 05:46:13;;;;;;;;;;;;;;;;;;5062965;28;20016;-70
2022/04/09 05:48:39;;;;;;;;;;;;;;;;;;5061499;28;20474;-70
2022/04/09 05:51:06;;;;;;;;;;;;;;;;;;5061461;28;19968;-71
2022/04/09 05:53:32;;;;;;;;;;;;;;;;;;5060622;28;19970;-71
2022/04/09 05:55:59;;;;;;;;;;;;;;;;;;5062480;28;19960;-71
2022/04/09 05:58:25;;;;;;;;;;;;;;;;;;5067710;28;19982;-71
2022/04/09 06:00:52;;;;;;;;;;;;;;;;;;5061069;28;20642;-72
2022/04/09 06:03:18;;;;;;;;;;;;;;;;;;5063949;28;19947;-72
2022/04/09 06:05:44;;;;;;;;;;;;;;;;;;5061970;28;20384;-69
2022/04/09 06:08:11;;;;;;;;;;;;;;;;;;5062463;28;19999;-69
2022/04/09 06:10:37;;;;;;;;;;;;;;;;;;5059831;28;19956;-68
2022/04/09 06:13:03;;;;;;;;;;;;;;;;;;5061645;28;19991;-69
2022/04/09 06:15:31;;;;;;;;;;;;;;;;;;5060368;28;19921;-69
2022/04/09 06:17:57;;;;;;;;;;;;;;;;;;5061397;28;19920;-69
2022/04/09 06:20:23;;;;;;;;;;;;;;;;;;5062126;28;20439;-69
2022/04/09 06:22:57;;;;;;;;;;;;;;;;;;5062084;28;19970;-68
2022/04/09 06:25:24;;;;;;;;;;;;;;;;;;5061807;28;20507;-68
2022/04/09 06:27:50;;;;;;;;;;;;;;;;;;5062346;28;19982;-68
2022/04/09 06:30:19;;;;;;;;;;;;;;;;;;5056904;28;19975;-68
2022/04/09 06:32:46;;;;;;;;;;;;;;;;;;5061392;28;20359;-68
2022/04/09 06:35:12;;;;;;;;;;;;;;;;;;5060038;28;19952;-68
2022/04/09 06:37:45;;;;;;;;;;;;;;;;;;5059398;28;19986;-69
2022/04/09 06:40:12;;;;;;;;;;;;;;;;;;5065682;28;20007;-68
2022/04/09 06:42:39;;;;;;;;;;;;;;;;;;5064241;28;20434;-69
2022/04/09 06:45:13;;;;;;;;;;;;;;;;;;5058053;28;20447;-70
2022/04/09 06:47:40;;;;;;;;;;;;;;;;;;5063509;28;19928;-70
2022/04/09 06:50:06;;;;;;;;;;;;;;;;;;5060784;28;19963;-70
2022/04/09 06:52:35;;;;;;;;;;;;;;;;;;5061181;28;19920;-70
2022/04/09 06:55:03;;;;;;;;;;;;;;;;;;5062097;28;20039;-71
2022/04/09 06:57:29;;;;;;;;;;;;;;;;;;5062409;28;19932;-71
2022/04/09 06:59:56;;;;;;;;;;;;;;;;;;5063795;28;20020;-71
2022/04/09 07:02:24;;;;;;;;;;;;;;;;;;5059090;28;20429;-70
2022/04/09 07:04:51;;;;;;;;;;;;;;;;;;5059409;28;19925;-71
2022/04/09 07:07:17;;;;;;;;;;;;;;;;;;5058494;28;19999;-71
2022/04/09 07:09:44;;;;;;;;;;;;;;;;;;5054374;28;19967;-71
2022/04/09 07:12:10;;;;;;;;;;;;;;;;;;5060668;28;19968;-70
2022/04/09 07:14:37;;;;;;;;;;;;;;;;;;5046406;28;19960;-70
2022/04/09 07:17:04;;;;;;;;;;;;;;;;;;5062044;28;19959;-71
2022/04/09 07:19:31;;;;;;;;;;;;;;;;;;5059980;28;19964;-71
2022/04/09 07:21:58;;;;;;;;;;;;;;;;;;5059048;28;20022;-71
2022/04/09 07:24:25;;;;;;;;;;;;;;;;;;5060459;28;20011;-70
2022/04/09 07:26:51;;;;;;;;;;;;;;;;;;5061575;28;19924;-71
2022/04/09 07:29:18;;;;;;;;;;;;;;;;;;5053393;28;20004;-72
2022/04/09 07:31:44;;;;;;;;;;;;;;;;;;5061291;28;20002;-72
2022/04/09 07:34:10;;;;;;;;;;;;;;;;;;5060089;28;19979;-72
2022/04/09 07:36:38;;;;;;;;;;;;;;;;;;5060592;28;20356;-72
2022/04/09 07:39:04;;;;;;;;;;;;;;;;;;5061825;28;20359;-72
2022/04/09 07:41:30;;;;;;;;;;;;;;;;;;5059896;28;20018;-72
2022/04/09 07:43:58;;;;;;;;;;;;;;;;;;5063086;28;20512;-72
2022/04/09 07:46:24;;;;;;;;;;;;;;;;;;5057424;28;20030;-72
2022/04/09 07:48:54;;;;;;;;;;;;;;;;;;5063000;28;19920;-73
2022/04/09 07:51:20;;;;;;;;;;;;;;;;;;5057368;28;20047;-73
2022/04/09 07:53:46;;;;;;;;;;;;;;;;;;5060060;28;20043;-73
2022/04/09 07:56:13;;;;;;;;;;;;;;;;;;5060482;28;20350;-73
2022/04/09 07:58:40;;;;;;;;;;;;;;;;;;5056940;28;20371;-76
2022/04/09 08:01:06;;;;;;;;;;;;;;;;;;5056763;28;19967;-76
2022/04/09 08:03:33;;;;;;;;;;;;;;;;;;5059180;28;19968;-76
2022/04/09 08:05:59;;;;;;;;;;;;;;;;;;5056830;28;20417;-76
2022/04/09 08:08:25;;;;;;;;;;;;;;;;;;5056229;28;20435;-76
2022/04/09 08:10:52;;;;;;;;;;;;;;;;;;5059960;28;20396;-77
2022/04/09 08:13:19;;;;;;;;;;;;;;;;;;5057535;28;19983;-76
2022/04/09 08:15:45;;;;;;;;;;;;;;;;;;5057509;28;19946;-77
2022/04/09 08:18:12;;;;;;;;;;;;;;;;;;5058065;28;19920;-74
2022/04/09 08:20:58;;;;;;;;;;;;;;;;;;5059206;28;20247;-75
2022/04/09 08:23:25;;;;;;;;;;;;;;;;;;5062251;28;20004;-75
2022/04/09 08:25:51;;;;;;;;;;;;;;;;;;5061326;28;19994;-75
2022/04/09 08:28:17;;;;;;;;;;;;;;;;;;5060403;28;20011;-76
2022/04/09 08:30:45;;;;;;;;;;;;;;;;;;5064945;28;20681;-76
2022/04/09 08:33:15;;;;;;;;;;;;;;;;;;5067658;28;19971;-76
2022/04/09 08:35:43;;;;;;;;;;;;;;;;;;5068463;28;20019;-76
2022/04/09 08:38:10;;;;;;;;;;;;;;;;;;5059778;28;19924;-76
2022/04/09 08:40:36;;;;;;;;;;;;;;;;;;5046546;28;19965;-76
2022/04/09 08:43:03;;;;;;;;;;;;;;;;;;5063156;28;20371;-76
2022/04/09 08:45:30;;;;;;;;;;;;;;;;;;5064000;28;19968;-76
2022/04/09 08:47:56;;;;;;;;;;;;;;;;;;5062864;28;20015;-76
2022/04/09 08:50:22;;;;;;;;;;;;;;;;;;5060901;28;19983;-76
2022/04/09 08:52:55;;;;;;;;;;;;;;;;;;5064205;28;20362;-76
2022/04/09 08:55:22;;;;;;;;;;;;;;;;;;5061054;28;19967;-77
2022/04/09 08:57:48;;;;;;;;;;;;;;;;;;5061691;28;19976;-76
2022/04/09 09:00:17;;;;;;;;;;;;;;;;;;5059331;28;20011;-77
2022/04/09 09:02:43;;;;;;;;;;;;;;;;;;5060635;28;20371;-77
2022/04/09 09:05:10;;;;;;;;;;;;;;;;;;5063396;28;19964;-77
2022/04/09 09:07:36;;;;;;;;;;;;;;;;;;5065104;28;20387;-77
2022/04/09 09:10:03;;;;;;;;;;;;;;;;;;5066316;28;19971;-77
2022/04/09 09:12:29;;;;;;;;;;;;;;;;;;5068068;28;20062;-78
2022/04/09 09:15:03;;;;;;;;;;;;;;;;;;5062409;28;20406;-77
2022/04/09 09:17:30;;;;;;;;;;;;;;;;;;5063649;28;19962;-77
2022/04/09 09:19:56;;;;;;;;;;;;;;;;;;5063458;28;20391;-77
2022/04/09 09:22:25;;;;;;;;;;;;;;;;;;5064062;28;19932;-77
2022/04/09 09:24:51;;;;;;;;;;;;;;;;;;5064164;28;20455;-77
2022/04/09 09:27:17;;;;;;;;;;;;;;;;;;5064278;28;19972;-77
2022/04/09 09:29:48;;;;;;;;;;;;;;;;;;5062423;28;19999;-77
2022/04/09 09:32:14;;;;;;;;;;;;;;;;;;5066157;28;19968;-77
2022/04/09 09:34:40;;;;;;;;;;;;;;;;;;5063581;28;19963;-77
2022/04/09 09:37:07;;;;;;;;;;;;;;;;;;5063444;28;19971;-76
2022/04/09 09:39:36;;;;;;;;;;;;;;;;;;5060316;28;19975;-76
2022/04/09 09:42:03;;;;;;;;;;;;;;;;;;5064283;28;20000;-77
2022/04/09 09:44:34;;;;;;;;;;;;;;;;;;5062557;28;19925;-77
2022/04/09 09:47:01;;;;;;;;;;;;;;;;;;5060933;28;19974;-77
2022/04/09 09:49:28;;;;;;;;;;;;;;;;;;5061555;28;19946;-77
2022/04/09 09:51:54;;;;;;;;;;;;;;;;;;5061429;28;20012;-76
2022/04/09 09:54:20;;;;;;;;;;;;;;;;;;5061849;28;20024;-76
2022/04/09 09:56:47;;;;;;;;;;;;;;;;;;5059541;28;19970;-77
2022/04/09 09:59:14;;;;;;;;;;;;;;;;;;5060480;28;20395;-77
2022/04/09 10:01:40;;;;;;;;;;;;;;;;;;5060703;28;20010;-77
2022/04/09 10:04:07;;;;;;;;;;;;;;;;;;5063956;28;19928;-76
2022/04/09 10:06:33;;;;;;;;;;;;;;;;;;5062493;28;19924;-76
2022/04/09 10:09:02;;;;;;;;;;;;;;;;;;5063263;28;19967;-77
2022/04/09 10:11:28;;;;;;;;;;;;;;;;;;5064000;28;19972;-77
2022/04/09 10:13:55;;;;;;;;;;;;;;;;;;5059675;28;19995;-77
2022/04/09 10:16:21;;;;;;;;;;;;;;;;;;5065367;28;19990;-77
2022/04/09 10:18:48;;;;;;;;;;;;;;;;;;5063773;28;19966;-77
2022/04/09 10:21:14;;;;;;;;;;;;;;;;;;5058572;28;19971;-77
2022/04/09 10:23:47;;;;;;;;;;;;;;;;;;5063561;28;20011;-77
2022/04/09 10:26:14;;;;;;;;;;;;;;;;;;5058904;28;19945;-77
2022/04/09 10:28:40;;;;;;;;;;;;;;;;;;5057883;28;19976;-77
2022/04/09 10:31:10;;;;;;;;;;;;;;;;;;5060618;28;20388;-77
2022/04/09 10:33:36;;;;;;;;;;;;;;;;;;5059490;28;20224;-77
2022/04/09 10:36:04;;;;;;;;;;;;;;;;;;5061459;28;20015;-77
2022/04/09 10:38:33;;;;;;;;;;;;;;;;;;5061485;28;19956;-77
2022/04/09 10:41:00;;;;;;;;;;;;;;;;;;5063643;28;19928;-77
2022/04/09 10:43:26;;;;;;;;;;;;;;;;;;5062515;28;20352;-77
2022/04/09 10:45:52;;;;;;;;;;;;;;;;;;5062062;28;20524;-77
2022/04/09 10:48:19;;;;;;;;;;;;;;;;;;5060379;28;19931;-77
2022/04/09 10:50:45;;;;;;;;;;;;;;;;;;5063628;28;19999;-78
2022/04/09 10:53:14;;;;;;;;;;;;;;;;;;5060193;28;19978;-76
2022/04/09 10:55:40;;;;;;;;;;;;;;;;;;5057165;28;19967;-77
2022/04/09 10:58:10;;;;;;;;;;;;;;;;;;5056062;28;19928;-77
2022/04/09 11:00:37;;;;;;;;;;;;;;;;;;5058931;28;20467;-77
2022/04/09 11:03:04;;;;;;;;;;;;;;;;;;5061823;28;19928;-77
2022/04/09 11:05:30;;;;;;;;;;;;;;;;;;5057935;28;19936;-77
2022/04/09 11:07:59;;;;;;;;;;;;;;;;;;5062068;28;20427;-76
2022/04/09 11:10:25;;;;;;;;;;;;;;;;;;5061665;28;19972;-76
2022/04/09 11:12:51;;;;;;;;;;;;;;;;;;5058012;28;20011;-76
2022/04/09 11:15:19;;;;;;;;;;;;;;;;;;5063564;28;19933;-77
2022/04/09 11:17:46;;;;;;;;;;;;;;;;;;5060695;28;19928;-76
2022/04/09 11:20:12;;;;;;;;;;;;;;;;;;5056569;28;19920;-77
2022/04/09 11:22:47;;;;;;;;;;;;;;;;;;5060112;28;20019;-76
2022/04/09 11:25:13;;;;;;;;;;;;;;;;;;5059374;28;20015;-77
2022/04/09 11:27:39;;;;;;;;;;;;;;;;;;5060711;28;19955;-76
2022/04/09 11:30:12;;;;;;;;;;;;;;;;;;5058338;28;19966;-76
2022/04/09 11:32:39;;;;;;;;;;;;;;;;;;5057787;28;19964;-77
2022/04/09 11:35:08;;;;;;;;;;;;;;;;;;5058826;28;19952;-77
2022/04/09 11:37:34;;;;;;;;;;;;;;;;;;5056919;28;19928;-77
2022/04/09 11:40:01;;;;;;;;;;;;;;;;;;5045640;28;19963;-77
2022/04/09 11:42:27;;;;;;;;;;;;;;;;;;5056829;28;20443;-77
2022/04/09 11:45:01;;;;;;;;;;;;;;;;;;5061490;28;19963;-77
2022/04/09 11:47:27;;;;;;;;;;;;;;;;;;5060617;28;19959;-77
2022/04/09 11:49:54;;;;;;;;;;;;;;;;;;5056401;28;19967;-77
2022/04/09 11:52:21;;;;;;;;;;;;;;;;;;5052065;28;19967;-76
2022/04/09 11:54:48;;;;;;;;;;;;;;;;;;5038576;28;19956;-77
2022/04/09 11:57:14;;;;;;;;;;;;;;;;;;5042324;28;19997;-77
2022/04/09 11:59:48;;;;;;;;;;;;;;;;;;5039775;28;19956;-77
2022/04/09 12:02:15;;;;;;;;;;;;;;;;;;5039966;28;19924;-78
2022/04/09 12:04:42;;;;;;;;;;;;;;;;;;5026178;28;19960;-78
2022/04/09 12:07:08;;;;;;;;;;;;;;;;;;5041799;28;19921;-77
2022/04/09 12:09:36;;;;;;;;;;;;;;;;;;5040492;28;20775;-75
2022/04/09 12:12:02;;;;;;;;;;;;;;;;;;5040637;28;20446;-76
2022/04/09 12:14:30;;;;;;;;;;;;;;;;;;5038895;28;19971;-76
2022/04/09 12:16:57;;;;;;;;;;;;;;;;;;5038611;28;20371;-77
2022/04/09 12:19:23;;;;;;;;;;;;;;;;;;5043244;28;20674;-77
2022/04/09 12:21:55;;;;;;;;;;;;;;;;;;5040854;28;19925;-77
2022/04/09 12:24:22;;;;;;;;;;;;;;;;;;5040053;28;19964;-77
2022/04/09 12:26:48;;;;;;;;;;;;;;;;;;5043191;28;19964;-77
2022/04/09 12:29:16;;;;;;;;;;;;;;;;;;5038401;28;19956;-77
2022/04/09 12:31:42;;;;;;;;;;;;;;;;;;5042241;28;19921;-78
2022/04/09 12:34:16;;;;;;;;;;;;;;;;;;5038320;28;19948;-78
2022/04/09 12:36:48;;;;;;;;;;;;;;;;;;5038061;28;20015;-77
2022/04/09 12:39:15;;;;;;;;;;;;;;;;;;5038742;28;19968;-74
2022/04/09 12:41:41;;;;;;;;;;;;;;;;;;5040187;28;19920;-73
2022/04/09 12:44:07;;;;;;;;;;;;;;;;;;5040548;28;19921;-74
2022/04/09 12:46:34;;;;;;;;;;;;;;;;;;5039813;28;20446;-75
2022/04/09 12:49:00;;;;;;;;;;;;;;;;;;5042457;28;19975;-75
2022/04/09 12:51:31;;;;;;;;;;;;;;;;;;5043777;28;19940;-76
2022/04/09 12:53:57;;;;;;;;;;;;;;;;;;5062576;28;19921;-76
2022/04/09 12:56:24;;;;;;;;;;;;;;;;;;5061701;28;19955;-76
2022/04/09 12:58:50;;;;;;;;;;;;;;;;;;5057797;28;19924;-76
2022/04/09 13:01:19;;;;;;;;;;;;;;;;;;5058236;28;19952;-76
2022/04/09 13:03:48;;;;;;;;;;;;;;;;;;5059522;28;19926;-76
2022/04/09 13:06:15;;;;;;;;;;;;;;;;;;5062766;28;20422;-76
2022/04/09 13:08:41;;;;;;;;;;;;;;;;;;5060611;28;20375;-75
2022/04/09 13:11:14;;;;;;;;;;;;;;;;;;5059602;28;19963;-76
2022/04/09 13:13:41;;;;;;;;;;;;;;;;;;5059260;28;19924;-76
2022/04/09 13:16:07;;;;;;;;;;;;;;;;;;5056457;28;20626;-76
2022/04/09 13:18:34;;;;;;;;;;;;;;;;;;5062284;28;20292;-76
2022/04/09 13:21:01;;;;;;;;;;;;;;;;;;5061088;28;19960;-76
2022/04/09 13:23:27;;;;;;;;;;;;;;;;;;5060727;28;19967;-76
2022/04/09 13:25:55;;;;;;;;;;;;;;;;;;5061163;28;19968;-76
2022/04/09 13:28:22;;;;;;;;;;;;;;;;;;5062807;28;19931;-76
2022/04/09 13:30:49;;;;;;;;;;;;;;;;;;5058637;28;19924;-77
2022/04/09 13:33:16;;;;;;;;;;;;;;;;;;5064127;28;19935;-77
2022/04/09 13:35:43;;;;;;;;;;;;;;;;;;5060945;28;20051;-77
2022/04/09 13:38:10;;;;;;;;;;;;;;;;;;5064128;28;19987;-77
2022/04/09 13:40:36;;;;;;;;;;;;;;;;;;5064159;28;19968;-77
2022/04/09 13:43:02;;;;;;;;;;;;;;;;;;5061957;28;19978;-77
2022/04/09 13:45:29;;;;;;;;;;;;;;;;;;5061065;28;20357;-77
2022/04/09 13:47:55;;;;;;;;;;;;;;;;;;5063039;28;20439;-77
2022/04/09 13:50:22;;;;;;;;;;;;;;;;;;5066279;28;19921;-77
2022/04/09 13:52:49;;;;;;;;;;;;;;;;;;5061442;28;19971;-78
2022/04/09 13:55:16;;;;;;;;;;;;;;;;;;5062711;28;19963;-77
2022/04/09 13:57:42;;;;;;;;;;;;;;;;;;5060576;28;19960;-76
2022/04/09 14:00:10;;;;;;;;;;;;;;;;;;5063051;28;19963;-77
2022/04/09 14:02:37;;;;;;;;;;;;;;;;;;5062427;28;19963;-77
2022/04/09 14:05:05;;;;;;;;;;;;;;;;;;5061863;28;19963;-76
2022/04/09 14:07:32;;;;;;;;;;;;;;;;;;5060474;28;19921;-77
2022/04/09 14:09:58;;;;;;;;;;;;;;;;;;5060122;28;19924;-76
2022/04/09 14:12:24;;;;;;;;;;;;;;;;;;5063124;28;19968;-76
2022/04/09 14:14:51;;;;;;;;;;;;;;;;;;5060622;28;20051;-76
2022/04/09 14:17:17;;;;;;;;;;;;;;;;;;5060445;28;19925;-76
2022/04/09 14:19:44;;;;;;;;;;;;;;;;;;5061263;28;20585;-76
2022/04/09 14:22:11;;;;;;;;;;;;;;;;;;5058841;28;20019;-76
2022/04/09 14:24:37;;;;;;;;;;;;;;;;;;5059594;28;20019;-76
2022/04/09 14:27:03;;;;;;;;;;;;;;;;;;5057652;28;20446;-76
2022/04/09 14:29:30;;;;;;;;;;;;;;;;;;5058325;28;19972;-76
2022/04/09 14:31:56;;;;;;;;;;;;;;;;;;5059608;28;19956;-76
2022/04/09 14:34:23;;;;;;;;;;;;;;;;;;5061523;28;20100;-76
2022/04/09 14:36:49;;;;;;;;;;;;;;;;;;5062100;28;20019;-76
2022/04/09 14:39:15;;;;;;;;;;;;;;;;;;5058331;28;19968;-76
2022/04/09 14:41:42;;;;;;;;;;;;;;;;;;5056768;28;19958;-75
2022/04/09 14:44:09;;;;;;;;;;;;;;;;;;5059353;28;19971;-76
2022/04/09 14:46:36;;;;;;;;;;;;;;;;;;5061480;28;19967;-75
2022/04/09 14:49:05;;;;;;;;;;;;;;;;;;5058220;28;19924;-75
2022/04/09 14:51:32;;;;;;;;;;;;;;;;;;5061482;28;20010;-74
2022/04/09 14:53:59;;;;;;;;;;;;;;;;;;5061664;28;19963;-74
2022/04/09 14:56:25;;;;;;;;;;;;;;;;;;5060511;28;20448;-75
2022/04/09 14:58:58;;;;;;;;;;;;;;;;;;5064512;28;20020;-75
2022/04/09 15:01:24;;;;;;;;;;;;;;;;;;5062666;28;19928;-73
2022/04/09 15:03:51;;;;;;;;;;;;;;;;;;5064127;28;19930;-72
2022/04/09 15:06:18;;;;;;;;;;;;;;;;;;5060587;28;20020;-73
2022/04/09 15:08:44;;;;;;;;;;;;;;;;;;5061721;28;20384;-74
2022/04/09 15:11:10;;;;;;;;;;;;;;;;;;5059226;28;20347;-75
2022/04/09 15:13:37;;;;;;;;;;;;;;;;;;5063847;28;19928;-75
2022/04/09 15:16:03;;;;;;;;;;;;;;;;;;5059696;28;19959;-75
2022/04/09 15:18:29;;;;;;;;;;;;;;;;;;5059706;28;20415;-75
2022/04/09 15:20:56;;;;;;;;;;;;;;;;;;5058923;28;20590;-75
2022/04/09 15:23:22;;;;;;;;;;;;;;;;;;5058239;28;19928;-75
2022/04/09 15:25:49;;;;;;;;;;;;;;;;;;5062314;28;19970;-75
2022/04/09 15:28:16;;;;;;;;;;;;;;;;;;5056762;28;19975;-76
2022/04/09 15:30:45;;;;;;;;;;;;;;;;;;5058501;28;19990;-75
2022/04/09 15:33:12;;;;;;;;;;;;;;;;;;5062529;28;19928;-76
2022/04/09 15:35:38;;;;;;;;;;;;;;;;;;5061895;28;20003;-75
2022/04/09 15:38:05;;;;;;;;;;;;;;;;;;5062885;28;19996;-75
2022/04/09 15:40:31;;;;;;;;;;;;;;;;;;5060463;28;20352;-77
2022/04/09 15:42:58;;;;;;;;;;;;;;;;;;5062219;28;20480;-76
2022/04/09 15:45:24;;;;;;;;;;;;;;;;;;5059442;28;20011;-75
2022/04/09 15:47:50;;;;;;;;;;;;;;;;;;5059443;28;19943;-75
2022/04/09 15:50:17;;;;;;;;;;;;;;;;;;5060565;28;19967;-76
2022/04/09 15:52:43;;;;;;;;;;;;;;;;;;5051396;28;20415;-75
2022/04/09 15:55:10;;;;;;;;;;;;;;;;;;5037418;28;20587;-75
2022/04/09 15:57:37;;;;;;;;;;;;;;;;;;5040359;28;19976;-75
2022/04/09 16:00:05;;;;;;;;;;;;;;;;;;5038609;28;19971;-74
2022/04/09 16:02:37;;;;;;;;;;;;;;;;;;5038851;28;19932;-76
2022/04/09 16:05:04;;;;;;;;;;;;;;;;;;5036824;28;19935;-75
2022/04/09 16:07:31;;;;;;;;;;;;;;;;;;5039615;28;19967;-75
2022/04/09 16:09:57;;;;;;;;;;;;;;;;;;5040820;28;20645;-75
2022/04/09 16:12:34;;;;;;;;;;;;;;;;;;5039156;28;20063;-75
2022/04/09 16:15:00;;;;;;;;;;;;;;;;;;5039828;28;20049;-75
2022/04/09 16:17:26;;;;;;;;;;;;;;;;;;5036636;28;19972;-75
2022/04/09 16:19:53;;;;;;;;;;;;;;;;;;5037101;28;20013;-75
2022/04/09 16:22:20;;;;;;;;;;;;;;;;;;5038413;28;20030;-74
2022/04/09 16:24:46;;;;;;;;;;;;;;;;;;5037440;28;19968;-76
2022/04/09 16:27:22;;;;;;;;;;;;;;;;;;5037216;28;19968;-75
2022/04/09 16:29:48;;;;;;;;;;;;;;;;;;5038784;28;20016;-75
2022/04/09 16:32:14;;;;;;;;;;;;;;;;;;5037478;28;19928;-76
2022/04/09 16:34:43;;;;;;;;;;;;;;;;;;5037339;28;19976;-76
2022/04/09 16:37:09;;;;;;;;;;;;;;;;;;5040710;28;20040;-76
2022/04/09 16:39:35;;;;;;;;;;;;;;;;;;5038042;28;20553;-76
2022/04/09 16:42:05;;;;;;;;;;;;;;;;;;5035446;28;19979;-76
2022/04/09 16:44:35;;;;;;;;;;;;;;;;;;5033107;28;19929;-75